Time;durP1;ratioP1;P1;durP2;ratioP2;P2;SDS_P1;SDS_P2;PMS_P1;PMS_P2;Temp;Humidity;BMP_temperature;BMP_pressure;BME280_temperature;BME280_humidity;BME280_pressure;Samples;Min_cycle;Max_cycle;Signal;HPM_P1;HPM_P2
2023/06/15 00:11:28;;;;;;;;;;;17.30;36.30;;;13.07;65.68;95309.16;4900621;29;20514;-48
2023/06/15 00:13:54;;;;;;;;;;;17.10;36.60;;;13.02;65.30;95308.41;4919857;29;19918;-48
2023/06/15 00:16:20;;;;;;;;;;;17.00;36.70;;;12.92;65.11;95306.66;4926341;29;19958;-49
2023/06/15 00:18:48;;;;;;;;;;;17.00;36.80;;;12.81;65.50;95307.84;4934892;29;20363;-51
2023/06/15 00:21:17;;;;;;;;;;;16.90;37.00;;;12.78;66.38;95309.19;4933202;29;20010;-48
2023/06/15 00:23:45;;;;;;;;;;;16.80;37.10;;;12.65;67.36;95308.00;4934704;29;19910;-52
2023/06/15 00:26:11;;;;;;;;;;;16.80;37.20;;;12.55;68.04;95302.00;4934791;29;20012;-47
2023/06/15 00:28:37;;;;;;;;;;;16.70;37.40;;;12.54;67.60;95301.19;4936064;28;20377;-51
2023/06/15 00:31:02;;;;;;;;;;;16.60;37.50;;;12.55;68.69;95302.00;4934729;28;19917;-53
2023/06/15 00:33:28;;;;;;;;;;;16.60;37.70;;;12.51;68.33;95299.09;4930610;29;20317;-53
2023/06/15 00:35:54;;;;;;;;;;;16.60;37.90;;;12.48;67.54;95300.44;4934095;29;20294;-53
2023/06/15 00:38:20;;;;;;;;;;;16.60;38.00;;;12.49;67.06;95299.34;4933814;29;19914;-49
2023/06/15 00:40:48;;;;;;;;;;;16.50;38.10;;;12.48;67.90;95296.97;4928008;29;20400;-50
2023/06/15 00:43:14;;;;;;;;;;;16.50;38.30;;;12.46;68.16;95299.13;4939314;23;19926;-48
2023/06/15 00:45:39;;;;;;;;;;;16.40;38.30;;;12.46;68.26;95296.47;4926850;29;19918;-49
2023/06/15 00:48:05;;;;;;;;;;;16.40;38.40;;;12.44;68.06;95296.75;4933989;29;19910;-52
2023/06/15 00:50:32;;;;;;;;;;;16.40;38.50;;;12.44;67.79;95298.59;4914641;29;19910;-48
2023/06/15 00:53:03;;;;;;;;;;;16.40;38.70;;;12.45;68.17;95300.22;4948881;29;20021;-53
2023/06/15 00:55:34;;;;;;;;;;;16.40;38.80;;;12.51;67.18;95307.09;4934717;29;20284;-46
2023/06/15 00:58:02;;;;;;;;;;;16.40;38.90;;;12.53;67.14;95298.78;4927011;28;19918;-50
2023/06/15 01:00:32;;;;;;;;;;;16.40;38.90;;;12.54;66.31;95297.72;4936885;29;19914;-52
2023/06/15 01:02:59;;;;;;;;;;;16.40;39.10;;;12.56;65.65;95299.00;4932097;29;20301;-49
2023/06/15 01:05:25;;;;;;;;;;;16.40;39.20;;;12.60;65.79;95301.94;4932769;29;19996;-45
2023/06/15 01:07:54;;;;;;;;;;;16.50;39.20;;;12.66;65.09;95306.94;4937392;29;20393;-47
2023/06/15 01:10:23;;;;;;;;;;;16.50;39.40;;;12.73;64.33;95302.03;4935176;28;19910;-49
2023/06/15 01:12:54;;;;;;;;;;;16.50;39.40;;;12.82;63.85;95301.44;4951937;28;19911;-47
2023/06/15 01:15:22;;;;;;;;;;;16.50;39.40;;;12.92;63.64;95296.75;4922730;29;19917;-48
2023/06/15 01:17:54;;;;;;;;;;;16.60;39.50;;;13.00;63.39;95294.50;4935623;29;20343;-52
2023/06/15 01:20:26;;;;;;;;;;;16.70;39.60;;;13.04;62.89;95295.56;4919440;29;19914;-52
2023/06/15 01:23:25;;;;;;;;;;;16.70;39.50;;;13.10;62.88;95300.53;4943703;28;19922;-48
2023/06/15 01:26:10;;;;;;;;;;;16.80;39.60;;;13.11;62.79;95290.63;4950291;28;19957;-49
2023/06/15 01:28:41;;;;;;;;;;;16.90;39.60;;;13.12;62.79;95290.34;4964100;28;19964;-50
2023/06/15 01:31:10;;;;;;;;;;;16.90;39.60;;;13.12;63.03;95298.38;4937053;29;19911;-51
2023/06/15 01:33:50;;;;;;;;;;;16.90;39.60;;;13.12;63.14;95294.91;4930877;29;20413;-52
2023/06/15 01:36:18;;;;;;;;;;;16.90;39.50;;;13.08;63.53;95300.03;4936338;29;19911;-52
2023/06/15 01:38:52;;;;;;;;;;;16.90;39.50;;;13.01;63.10;95301.47;4931364;29;20382;-49
2023/06/15 01:41:22;;;;;;;;;;;16.90;39.50;;;12.96;63.01;95292.41;4932710;29;20031;-53
2023/06/15 01:43:50;;;;;;;;;;;16.80;39.40;;;12.92;63.16;95299.41;4928704;28;19973;-51
2023/06/15 01:46:18;;;;;;;;;;;16.80;39.40;;;12.84;64.49;95305.38;4919156;29;19910;-51
2023/06/15 01:48:44;;;;;;;;;;;16.80;39.50;;;12.77;65.03;95301.47;4936737;29;20021;-55
2023/06/15 01:51:11;;;;;;;;;;;16.80;39.50;;;12.67;64.77;95303.19;4945214;28;19958;-50
2023/06/15 01:53:37;;;;;;;;;;;16.70;39.50;;;12.68;64.48;95299.41;4946082;28;20334;-48
2023/06/15 01:56:03;;;;;;;;;;;16.70;39.60;;;12.70;65.38;95304.50;4936362;29;19973;-48
2023/06/15 01:58:29;;;;;;;;;;;16.70;39.70;;;12.66;66.01;95300.78;4927172;29;19920;-53
2023/06/15 02:00:55;;;;;;;;;;;16.70;39.80;;;12.65;65.66;95299.19;4936392;29;20005;-51
2023/06/15 02:03:20;;;;;;;;;;;16.60;39.80;;;12.69;65.06;95294.88;4926254;29;19962;-51
2023/06/15 02:05:46;;;;;;;;;;;16.60;39.80;;;12.61;66.49;95290.16;4932620;29;19965;-51
2023/06/15 02:08:13;;;;;;;;;;;16.60;39.90;;;12.57;66.07;95297.97;4936146;29;19914;-54
2023/06/15 02:10:39;;;;;;;;;;;16.50;39.90;;;12.58;65.81;95309.44;4931442;29;19997;-52
2023/06/15 02:13:11;;;;;;;;;;;16.50;40.00;;;12.50;66.76;95308.16;4934640;28;19910;-51
2023/06/15 02:15:38;;;;;;;;;;;16.50;40.00;;;12.38;67.20;95305.91;4921350;29;19915;-50
2023/06/15 02:18:12;;;;;;;;;;;16.40;40.10;;;12.25;67.67;95310.03;4950747;28;19911;-50
2023/06/15 02:20:45;;;;;;;;;;;16.30;40.10;;;12.15;67.30;95311.97;4920268;29;19924;-50
2023/06/15 02:23:12;;;;;;;;;;;16.20;40.30;;;12.06;68.80;95308.31;4929748;28;19917;-51
2023/06/15 02:25:40;;;;;;;;;;;16.20;40.40;;;11.97;70.04;95318.78;4935169;29;20274;-49
2023/06/15 02:28:06;;;;;;;;;;;16.10;40.50;;;11.84;70.99;95312.19;4933549;29;19910;-51
2023/06/15 02:30:31;;;;;;;;;;;16.00;40.60;;;11.71;70.93;95312.81;4935931;29;19910;-52
2023/06/15 02:33:00;;;;;;;;;;;15.90;40.70;;;11.70;70.70;95304.03;4930195;29;19914;-51
2023/06/15 02:35:26;;;;;;;;;;;15.90;40.80;;;11.66;70.45;95315.53;4935091;29;19911;-50
2023/06/15 02:37:51;;;;;;;;;;;15.80;40.90;;;11.53;71.20;95314.28;4935590;29;20013;-55
2023/06/15 02:40:17;;;;;;;;;;;15.70;41.10;;;11.47;71.68;95318.03;4926126;29;20432;-54
2023/06/15 02:42:43;;;;;;;;;;;15.60;41.10;;;11.34;72.72;95328.28;4949935;28;19919;-49
2023/06/15 02:45:10;;;;;;;;;;;15.50;41.20;;;11.23;73.52;95320.59;4920081;29;19996;-52
2023/06/15 02:47:37;;;;;;;;;;;15.50;41.40;;;11.20;74.36;95323.81;4935313;29;19911;-50
2023/06/15 02:50:04;;;;;;;;;;;15.40;41.50;;;11.13;75.07;95321.44;4935459;29;19969;-48
2023/06/15 02:52:30;;;;;;;;;;;15.30;41.60;;;11.07;74.82;95322.53;4928272;29;19910;-49
2023/06/15 02:55:00;;;;;;;;;;;15.30;41.80;;;11.02;75.50;95325.22;4935251;29;19910;-48
2023/06/15 02:57:27;;;;;;;;;;;15.20;41.90;;;10.95;75.48;95322.84;4925561;29;19910;-55
2023/06/15 02:59:53;;;;;;;;;;;15.10;42.00;;;10.88;75.97;95328.47;4933891;29;19958;-54
2023/06/15 03:02:23;;;;;;;;;;;15.10;42.30;;;10.84;76.99;95334.59;4934497;29;20376;-55
2023/06/15 03:04:50;;;;;;;;;;;15.00;42.40;;;10.79;76.55;95334.63;4929472;29;19945;-55
2023/06/15 03:07:20;;;;;;;;;;;15.00;42.50;;;10.76;77.64;95340.50;4926013;29;19997;-52
2023/06/15 03:09:53;;;;;;;;;;;14.90;42.60;;;10.68;77.97;95344.50;4915549;28;19911;-53
2023/06/15 03:12:19;;;;;;;;;;;14.90;42.70;;;10.67;78.42;95339.47;4930076;29;19914;-55
2023/06/15 03:14:50;;;;;;;;;;;14.90;42.90;;;10.75;78.36;95342.38;4922228;28;19911;-53
2023/06/15 03:17:18;;;;;;;;;;;14.90;43.10;;;10.82;77.79;95347.41;4930241;29;20405;-48
2023/06/15 03:19:47;;;;;;;;;;;14.80;43.00;;;10.81;77.49;95346.63;4935165;29;20461;-55
2023/06/15 03:22:14;;;;;;;;;;;14.80;43.10;;;10.75;78.23;95353.03;4920610;28;19918;-52
2023/06/15 03:24:42;;;;;;;;;;;14.90;43.90;;;10.79;78.54;95355.94;4934740;29;19965;-52
2023/06/15 03:27:09;;;;;;;;;;;14.80;43.30;;;10.85;78.76;95349.53;4929929;28;20001;-49
2023/06/15 03:29:36;;;;;;;;;;;14.90;43.50;;;10.87;78.09;95350.88;4935548;28;19911;-53
2023/06/15 03:32:11;;;;;;;;;;;14.90;43.50;;;10.85;77.80;95347.66;4933757;29;20001;-50
2023/06/15 03:34:37;;;;;;;;;;;14.90;43.60;;;10.87;77.68;95350.03;4921220;28;20348;-50
2023/06/15 03:37:08;;;;;;;;;;;14.90;43.60;;;10.86;77.57;95357.25;4950441;28;20385;-53
2023/06/15 03:39:33;;;;;;;;;;;14.90;43.70;;;10.88;78.47;95357.78;4938660;28;19958;-51
2023/06/15 03:41:59;;;;;;;;;;;15.00;43.80;;;10.91;78.49;95359.13;4921560;29;19973;-48
2023/06/15 03:44:27;;;;;;;;;;;15.00;43.80;;;10.92;78.44;95363.38;4927582;29;19911;-54
2023/06/15 03:46:53;;;;;;;;;;;15.00;43.90;;;10.93;78.16;95358.81;4933625;28;19961;-50
2023/06/15 03:49:18;;;;;;;;;;;15.10;44.00;;;10.96;78.68;95359.06;4934713;29;19997;-53
2023/06/15 03:51:44;;;;;;;;;;;15.10;44.00;;;10.99;77.77;95368.41;4928097;29;20320;-55
2023/06/15 03:54:10;;;;;;;;;;;15.10;44.10;;;11.03;77.65;95369.44;4934510;28;19914;-50
2023/06/15 03:56:36;;;;;;;;;;;15.20;44.10;;;11.06;77.92;95371.56;4931419;29;19914;-48
2023/06/15 03:59:01;;;;;;;;;;;15.20;44.10;;;11.09;78.38;95374.50;4926883;29;19914;-48
2023/06/15 04:01:32;;;;;;;;;;;15.30;44.10;;;11.12;79.11;95383.81;4933301;29;26620;-48
2023/06/15 04:03:58;;;;;;;;;;;15.30;44.10;;;11.15;79.91;95383.25;4933073;28;19922;-53
2023/06/15 04:06:24;;;;;;;;;;;15.40;44.20;;;11.21;79.40;95387.50;4933529;29;19910;-51
2023/06/15 04:08:51;;;;;;;;;;;15.40;44.20;;;11.23;79.22;95388.03;4929399;29;20016;-50
2023/06/15 04:11:17;;;;;;;;;;;15.50;44.20;;;11.22;79.56;95386.47;4948152;28;20000;-53
2023/06/15 04:13:44;;;;;;;;;;;15.50;44.20;;;11.23;79.48;95388.03;4932734;29;19997;-49
2023/06/15 04:16:10;;;;;;;;;;;15.60;44.30;;;11.30;80.15;95390.41;4921015;28;19933;-52
2023/06/15 04:18:36;;;;;;;;;;;15.60;44.30;;;11.43;79.64;95402.34;4948683;28;20291;-51
2023/06/15 04:21:04;;;;;;;;;;;15.70;44.40;;;11.49;79.14;95404.72;4932816;29;19910;-51
2023/06/15 04:23:30;;;;;;;;;;;15.80;44.40;;;11.54;78.47;95401.25;4933690;29;19917;-52
2023/06/15 04:26:00;;;;;;;;;;;15.80;44.40;;;11.58;79.17;95400.41;4948305;28;19911;-51
2023/06/15 04:28:27;;;;;;;;;;;15.90;44.50;;;11.70;78.46;95407.28;4929187;29;20049;-50
2023/06/15 04:31:20;;;;;;;;;;;15.90;44.40;;;11.79;78.04;95411.78;4933776;29;20005;-53
2023/06/15 04:33:46;;;;;;;;;;;16.10;44.40;;;11.87;77.52;95418.41;4936482;28;19946;-53
2023/06/15 04:36:13;;;;;;;;;;;16.10;44.40;;;11.89;77.41;95415.50;4933188;29;19946;-49
2023/06/15 04:38:46;;;;;;;;;;;16.20;44.40;;;11.93;77.65;95416.53;4930752;29;19945;-50
2023/06/15 04:41:22;;;;;;;;;;;16.30;44.40;;;11.97;76.79;95415.72;4915251;28;19958;-50
2023/06/15 04:43:48;;;;;;;;;;;16.40;44.40;;;12.22;76.56;95417.41;4927816;29;20024;-52
2023/06/15 04:46:14;;;;;;;;;;;16.60;44.30;;;12.57;75.88;95420.88;4924560;29;19915;-50
2023/06/15 04:48:47;;;;;;;;;;;16.70;44.30;;;12.84;72.73;95427.56;4934008;29;19942;-49
2023/06/15 04:51:14;;;;;;;;;;;16.90;44.20;;;13.06;72.27;95424.38;4920138;29;19966;-49
2023/06/15 04:53:42;;;;;;;;;;;17.20;44.20;;;13.20;70.19;95428.00;4932594;29;19914;-55
2023/06/15 04:56:10;;;;;;;;;;;17.30;44.00;;;13.25;69.85;95432.50;4933076;29;19914;-53
2023/06/15 04:58:36;;;;;;;;;;;17.50;43.90;;;13.32;70.59;95425.75;4921307;28;20060;-48
2023/06/15 05:01:02;;;;;;;;;;;17.60;43.80;;;13.58;70.05;95436.13;4933347;29;19910;-49
2023/06/15 05:03:28;;;;;;;;;;;17.80;43.60;;;13.97;69.45;95438.56;4920423;29;20327;-54
2023/06/15 05:05:54;;;;;;;;;;;18.10;43.60;;;14.30;67.81;95441.31;4947727;29;20010;-53
2023/06/15 05:08:20;;;;;;;;;;;18.30;43.40;;;14.63;65.70;95441.34;4932418;29;20012;-48
2023/06/15 05:10:45;;;;;;;;;;;18.60;43.20;;;14.75;64.52;95437.13;4923614;28;19911;-48
2023/06/15 05:13:11;;;;;;;;;;;18.80;43.10;;;14.81;64.69;95441.31;4945479;29;19918;-48
2023/06/15 05:15:37;;;;;;;;;;;19.00;43.00;;;14.84;64.51;95442.59;4922104;29;19919;-49
2023/06/15 05:18:03;;;;;;;;;;;19.10;42.80;;;14.85;63.64;95446.88;4933695;29;20396;-53
2023/06/15 05:20:28;;;;;;;;;;;19.30;42.60;;;15.09;62.19;95445.94;4931068;29;20009;-51
2023/06/15 05:22:56;;;;;;;;;;;19.50;42.40;;;15.40;60.75;95446.16;4929500;29;19915;-50
2023/06/15 05:25:22;;;;;;;;;;;19.80;42.20;;;15.79;59.10;95450.25;4921880;29;19915;-48
2023/06/15 05:27:48;;;;;;;;;;;20.20;42.00;;;16.20;59.15;95442.09;4916105;29;19969;-48
2023/06/15 05:30:14;;;;;;;;;;;20.50;41.80;;;16.58;59.05;95447.16;4918048;29;20449;-49
2023/06/15 05:32:40;;;;;;;;;;;20.90;41.60;;;16.93;58.41;95450.09;4925917;29;19914;-49
2023/06/15 05:35:09;;;;;;;;;;;21.30;41.30;;;17.28;56.69;95448.38;4923030;29;20370;-51
2023/06/15 05:37:35;;;;;;;;;;;21.60;41.00;;;17.60;55.59;95451.81;4963209;28;19958;-51
2023/06/15 05:40:03;;;;;;;;;;;22.00;40.80;;;17.82;53.16;95454.44;4928575;28;20358;-50
2023/06/15 05:42:29;;;;;;;;;;;22.30;40.40;;;18.08;52.35;95456.38;4932920;29;20005;-51
2023/06/15 05:44:56;;;;;;;;;;;22.60;40.00;;;18.36;52.52;95454.19;4923623;29;20073;-49
2023/06/15 05:47:23;;;;;;;;;;;22.90;39.70;;;18.65;51.23;95459.75;4934042;29;19914;-50
2023/06/15 05:49:49;;;;;;;;;;;23.10;39.40;;;18.86;50.19;95467.19;4937007;29;19918;-51
2023/06/15 05:52:17;;;;;;;;;;;23.40;39.10;;;19.11;49.81;95460.97;4920166;29;19917;-51
2023/06/15 05:54:45;;;;;;;;;;;23.60;38.70;;;19.28;48.32;95465.53;4936290;29;19911;-51
2023/06/15 05:57:12;;;;;;;;;;;23.90;38.40;;;19.45;49.18;95463.88;4932931;29;19962;-51
2023/06/15 05:59:38;;;;;;;;;;;24.10;38.10;;;19.63;47.86;95466.19;4951021;28;19985;-52
2023/06/15 06:02:04;;;;;;;;;;;24.40;37.90;;;19.61;47.64;95471.13;4936046;29;19917;-54
2023/06/15 06:04:30;;;;;;;;;;;24.60;37.60;;;19.57;48.51;95474.78;4927269;29;19926;-52
2023/06/15 06:06:56;;;;;;;;;;;24.50;38.00;;;19.50;47.86;95478.00;4932569;29;19933;-51
2023/06/15 06:09:22;;;;;;;;;;;24.40;37.30;;;19.49;48.77;95479.13;4927731;29;19911;-49
2023/06/15 06:11:49;;;;;;;;;;;24.40;37.10;;;19.59;49.99;95477.97;4927389;29;19972;-54
2023/06/15 06:14:16;;;;;;;;;;;24.60;37.00;;;19.78;47.82;95477.59;4924147;29;20396;-54
2023/06/15 06:16:42;;;;;;;;;;;24.80;36.80;;;20.07;47.80;95487.63;4933602;29;20034;-55
2023/06/15 06:19:08;;;;;;;;;;;25.20;36.70;;;20.30;47.17;95488.09;4927095;29;20015;-54
2023/06/15 06:21:34;;;;;;;;;;;25.50;36.50;;;20.69;46.51;95483.41;4923936;29;20058;-53
2023/06/15 06:24:00;;;;;;;;;;;25.80;36.30;;;20.94;45.41;95493.19;4911700;28;19918;-50
2023/06/15 06:26:26;;;;;;;;;;;26.10;36.10;;;21.13;44.53;95489.22;4932616;29;20357;-49
2023/06/15 06:28:52;;;;;;;;;;;26.40;36.40;;;21.44;44.22;95483.34;4919900;29;19914;-55
2023/06/15 06:31:18;;;;;;;;;;;26.70;35.50;;;21.58;42.73;95488.41;4935493;29;19929;-56
2023/06/15 06:33:44;;;;;;;;;;;26.90;35.10;;;21.63;42.79;95493.63;4925218;29;19911;-54
2023/06/15 06:36:10;;;;;;;;;;;27.20;34.90;;;21.78;43.12;95486.72;4932980;29;19914;-52
2023/06/15 06:38:36;;;;;;;;;;;27.30;34.50;;;21.89;42.20;95485.94;4933415;28;19914;-52
2023/06/15 06:41:02;;;;;;;;;;;27.60;34.30;;;21.69;42.29;95486.88;4933411;29;20393;-50
2023/06/15 06:43:29;;;;;;;;;;;27.80;34.00;;;21.88;42.41;95484.38;4930889;29;20341;-55
2023/06/15 06:45:54;;;;;;;;;;;27.90;33.70;;;21.96;42.07;95482.66;4925344;29;19933;-53
2023/06/15 06:48:20;;;;;;;;;;;28.00;33.50;;;22.15;42.18;95484.81;4935645;29;19910;-51
2023/06/15 06:50:48;;;;;;;;;;;28.20;33.30;;;22.54;41.26;95490.66;4929584;29;19919;-53
2023/06/15 06:53:13;;;;;;;;;;;28.30;33.20;;;22.92;40.84;95490.19;4919314;29;19911;-56
2023/06/15 06:55:39;;;;;;;;;;;28.50;33.10;;;23.12;40.65;95490.34;4934022;29;19914;-52
2023/06/15 06:58:05;;;;;;;;;;;28.70;33.00;;;23.29;40.54;95490.06;4932608;29;19910;-53
2023/06/15 07:00:31;;;;;;;;;;;28.90;32.70;;;23.52;38.77;95487.53;4935096;28;19970;-52
2023/06/15 07:02:57;;;;;;;;;;;29.00;32.50;;;23.53;38.81;95492.63;4934529;28;19914;-53
2023/06/15 07:05:23;;;;;;;;;;;29.20;32.30;;;23.54;38.36;95496.94;4934471;29;19914;-49
2023/06/15 07:07:49;;;;;;;;;;;29.40;32.20;;;23.11;39.10;95505.88;4935275;29;20013;-52
2023/06/15 07:10:15;;;;;;;;;;;29.10;32.00;;;22.82;39.55;95499.63;4924854;29;19917;-50
2023/06/15 07:12:42;;;;;;;;;;;28.80;32.10;;;22.83;40.16;95508.56;4935147;29;20373;-51
2023/06/15 07:15:09;;;;;;;;;;;28.50;32.10;;;22.78;40.66;95501.47;4915911;29;20001;-55
2023/06/15 07:17:34;;;;;;;;;;;28.40;32.00;;;23.05;39.49;95507.25;4927750;29;19957;-52
2023/06/15 07:20:00;;;;;;;;;;;28.50;32.00;;;23.30;39.35;95505.22;4935003;29;19914;-51
2023/06/15 07:22:26;;;;;;;;;;;28.70;31.80;;;23.44;38.36;95500.16;4929878;29;19922;-50
2023/06/15 07:24:52;;;;;;;;;;;28.80;31.70;;;23.70;38.90;95488.81;4935073;29;20656;-52
2023/06/15 07:27:19;;;;;;;;;;;29.10;31.60;;;23.94;38.54;95493.28;4940460;28;19918;-52
2023/06/15 07:29:45;;;;;;;;;;;29.30;31.40;;;24.10;38.42;95495.16;4934460;29;19910;-52
2023/06/15 07:32:10;;;;;;;;;;;29.60;31.20;;;24.17;38.09;95498.84;4934402;28;19921;-53
2023/06/15 07:34:36;;;;;;;;;;;29.90;31.10;;;24.61;37.19;95497.91;4921356;29;19915;-53
2023/06/15 07:37:02;;;;;;;;;;;30.20;30.90;;;24.78;36.08;95502.13;4934445;29;19911;-54
2023/06/15 07:39:29;;;;;;;;;;;30.50;30.60;;;25.05;36.03;95501.13;4945438;28;19922;-52
2023/06/15 07:41:55;;;;;;;;;;;30.80;30.40;;;25.36;35.46;95504.88;4934620;28;19932;-54
2023/06/15 07:44:21;;;;;;;;;;;31.10;30.30;;;25.45;35.16;95496.47;4922617;29;19914;-56
2023/06/15 07:46:47;;;;;;;;;;;31.30;30.00;;;25.16;35.62;95498.63;4927745;29;19965;-49
2023/06/15 07:49:13;;;;;;;;;;;31.60;29.90;;;25.35;33.50;95495.09;4934574;29;19910;-48
2023/06/15 07:51:39;;;;;;;;;;;31.80;29.60;;;25.66;33.51;95494.09;4922971;28;19918;-49
2023/06/15 07:54:05;;;;;;;;;;;32.00;29.40;;;25.89;33.75;95502.31;4948443;28;19918;-49
2023/06/15 07:56:31;;;;;;;;;;;32.30;29.30;;;26.16;32.98;95503.13;4931663;28;20013;-48
2023/06/15 07:58:57;;;;;;;;;;;32.50;29.10;;;26.35;32.46;95499.50;4934046;29;20012;-49
2023/06/15 08:01:22;;;;;;;;;;;32.70;28.90;;;26.25;31.84;95505.59;4934138;29;20444;-49
2023/06/15 08:03:48;;;;;;;;;;;32.80;28.70;;;26.29;32.38;95496.31;4927889;29;19914;-52
2023/06/15 08:06:14;;;;;;;;;;;32.90;28.50;;;26.42;32.19;95494.16;4933804;29;19911;-50
2023/06/15 08:08:40;;;;;;;;;;;33.00;28.30;;;26.52;31.63;95490.03;4930469;29;19921;-50
2023/06/15 08:11:06;;;;;;;;;;;33.10;28.10;;;26.71;31.82;95483.66;4926795;29;19910;-54
2023/06/15 08:13:32;;;;;;;;;;;33.20;28.00;;;26.79;31.24;95490.75;4928583;29;19918;-51
2023/06/15 08:15:59;;;;;;;;;;;33.20;27.90;;;26.85;31.81;95493.94;4925731;29;19978;-52
2023/06/15 08:18:26;;;;;;;;;;;33.30;27.70;;;26.56;31.49;95501.00;4933987;29;20013;-50
2023/06/15 08:20:52;;;;;;;;;;;33.30;27.50;;;26.43;32.29;95495.72;4927748;29;20336;-49
2023/06/15 08:23:18;;;;;;;;;;;33.30;27.50;;;26.93;31.30;95490.94;4933048;29;19918;-49
2023/06/15 08:25:45;;;;;;;;;;;33.40;27.50;;;27.27;31.89;95493.69;4933262;29;20427;-53
2023/06/15 08:28:10;;;;;;;;;;;33.40;27.40;;;27.82;30.66;95498.56;4924396;29;19917;-50
2023/06/15 08:30:36;;;;;;;;;;;33.60;27.40;;;27.84;29.66;95493.50;4933351;29;19920;-50
2023/06/15 08:33:02;;;;;;;;;;;33.80;27.30;;;27.83;30.26;95489.19;4927643;29;19954;-53
2023/06/15 08:35:28;;;;;;;;;;;33.90;27.10;;;27.51;31.67;95497.06;4926017;29;19918;-52
2023/06/15 08:37:53;;;;;;;;;;;34.00;27.00;;;27.97;31.37;95502.19;4934026;29;20383;-47
2023/06/15 08:40:20;;;;;;;;;;;34.10;27.00;;;28.17;30.85;95498.03;4932884;29;19922;-50
2023/06/15 08:42:46;;;;;;;;;;;34.30;26.90;;;28.20;30.06;95491.81;4933747;28;19986;-55
2023/06/15 08:45:13;;;;;;;;;;;34.50;26.80;;;28.25;30.36;95496.94;4920654;29;19911;-48
2023/06/15 08:47:40;;;;;;;;;;;34.70;26.70;;;28.82;30.41;95491.81;4932002;29;19910;-49
2023/06/15 08:50:06;;;;;;;;;;;34.90;26.70;;;29.23;29.24;95499.03;4933735;29;19997;-51
2023/06/15 08:52:38;;;;;;;;;;;35.20;26.60;;;29.19;28.37;95488.06;4916325;28;19914;-53
2023/06/15 08:55:04;;;;;;;;;;;35.40;26.40;;;29.05;29.41;95496.22;4927367;28;19960;-53
2023/06/15 08:57:32;;;;;;;;;;;35.40;26.30;;;28.89;29.21;95490.28;4931140;29;20374;-50
2023/06/15 08:59:59;;;;;;;;;;;35.40;26.20;;;28.72;29.80;95500.00;4920556;29;19918;-56
2023/06/15 09:02:28;;;;;;;;;;;35.50;26.10;;;29.07;29.19;95493.13;4948130;29;19965;-51
2023/06/15 09:04:56;;;;;;;;;;;35.50;26.00;;;29.15;28.36;95486.50;4927616;29;19970;-54
2023/06/15 09:07:22;;;;;;;;;;;35.60;25.90;;;29.06;26.99;95481.38;4933224;29;19911;-51
2023/06/15 09:10:12;;;;;;;;;;;35.80;25.80;;;28.65;27.67;95484.31;4922842;28;19926;-50
2023/06/15 09:12:47;;;;;;;;;;;35.70;25.50;;;28.40;27.15;95489.63;4933461;29;19914;-51
2023/06/15 09:15:28;;;;;;;;;;;35.80;25.30;;;28.53;28.25;95492.84;4924547;28;19910;-51
2023/06/15 09:17:55;;;;;;;;;;;35.70;25.20;;;28.21;28.91;95490.66;4933516;29;19911;-49
2023/06/15 09:20:28;;;;;;;;;;;35.70;25.10;;;28.51;28.13;95493.22;4935563;29;20010;-49
2023/06/15 09:23:02;;;;;;;;;;;35.70;25.00;;;29.07;27.38;95484.91;4932671;29;20743;-55
2023/06/15 09:25:31;;;;;;;;;;;35.60;24.90;;;29.07;27.79;95482.94;4937108;29;19915;-51
2023/06/15 09:28:00;;;;;;;;;;;35.70;24.80;;;28.78;27.63;95491.00;4929208;28;19977;-53
2023/06/15 09:30:32;;;;;;;;;;;35.70;24.70;;;28.62;27.36;95487.81;4937422;29;20407;-55
2023/06/15 09:33:19;;;;;;;;;;;35.80;24.60;;;27.07;28.13;95484.06;4931823;28;19914;-53
2023/06/15 09:36:04;;;;;;;;;;;35.70;24.40;;;27.18;27.86;95483.06;4928239;28;20328;-52
2023/06/15 09:38:42;;;;;;;;;;;35.60;24.30;;;27.87;29.56;95487.25;4917893;29;19914;-52
2023/06/15 09:41:08;;;;;;;;;;;35.50;24.40;;;28.00;28.31;95495.97;4922692;29;19920;-51
2023/06/15 09:43:39;;;;;;;;;;;35.50;24.30;;;28.18;28.03;95496.88;4931266;29;20018;-55
2023/06/15 09:46:15;;;;;;;;;;;35.50;24.40;;;28.53;28.46;95493.63;4928081;29;20369;-53
2023/06/15 09:48:44;;;;;;;;;;;35.50;24.40;;;28.86;26.99;95480.84;4936580;29;20017;-50
2023/06/15 09:51:10;;;;;;;;;;;35.60;24.30;;;28.77;27.57;95497.69;4930190;28;19914;-52
2023/06/15 09:53:39;;;;;;;;;;;35.60;24.20;;;28.26;27.52;95495.75;4931576;29;19910;-54
2023/06/15 09:56:05;;;;;;;;;;;35.70;24.10;;;28.98;26.30;95496.19;4936598;29;19910;-51
2023/06/15 09:58:32;;;;;;;;;;;35.70;24.10;;;29.20;27.34;95489.63;4948261;28;19915;-52
2023/06/15 10:01:03;;;;;;;;;;;35.80;24.00;;;28.70;27.22;95494.09;4936788;29;19914;-54
2023/06/15 10:03:32;;;;;;;;;;;35.90;23.90;;;29.22;25.55;95490.03;4944165;28;19940;-51
2023/06/15 10:06:17;;;;;;;;;;;36.00;23.80;;;29.28;26.19;95495.94;4935631;29;19914;-51
2023/06/15 10:08:51;;;;;;;;;;;36.00;23.60;;;29.70;25.18;95491.72;4933857;28;19948;-52
2023/06/15 10:11:20;;;;;;;;;;;36.20;23.60;;;30.03;25.62;95489.78;4930577;29;19918;-54
2023/06/15 10:14:01;;;;;;;;;;;36.30;23.60;;;28.99;26.75;95484.06;4943791;28;19911;-50
2023/06/15 10:16:28;;;;;;;;;;;36.40;23.40;;;29.08;25.71;95489.19;4920437;29;20727;-48
2023/06/15 10:19:05;;;;;;;;;;;36.40;23.20;;;29.58;26.15;95487.34;4951060;28;19914;-50
2023/06/15 10:21:36;;;;;;;;;;;36.40;23.20;;;30.09;25.85;95489.00;4945586;28;19961;-49
2023/06/15 10:24:12;;;;;;;;;;;36.60;23.20;;;30.25;24.83;95490.59;4944448;23;20412;-53
2023/06/15 10:26:40;;;;;;;;;;;36.50;23.40;;;29.83;25.79;95486.63;4894457;29;19926;-49
2023/06/15 10:29:31;;;;;;;;;;;36.10;23.50;;;29.23;26.38;95486.13;4899493;29;19911;-49
2023/06/15 10:32:18;;;;;;;;;;;35.80;23.50;;;29.28;26.34;95485.75;4898010;29;19911;-53
2023/06/15 10:35:17;;;;;;;;;;;35.80;23.30;;;29.40;26.39;95484.59;4891814;29;19922;-54
2023/06/15 10:38:01;;;;;;;;;;;36.00;23.20;;;29.54;25.32;95488.53;4890077;29;19959;-55
2023/06/15 10:40:40;;;;;;;;;;;36.20;23.00;;;29.22;25.53;95490.03;4892486;29;20327;-52
2023/06/15 10:43:05;;;;;;;;;;;36.30;22.80;;;28.91;25.97;95482.47;4872708;29;19911;-55
2023/06/15 10:45:34;;;;;;;;;;;36.40;22.60;;;29.24;25.37;95484.19;4881573;29;20353;-54
2023/06/15 10:48:03;;;;;;;;;;;36.50;22.60;;;29.43;25.05;95486.56;4880419;29;20002;-51
2023/06/15 10:50:42;;;;;;;;;;;36.50;22.40;;;29.78;24.09;95484.31;4876898;29;19919;-50
2023/06/15 10:53:34;;;;;;;;;;;36.70;22.40;;;30.14;24.10;95488.59;4879011;29;19911;-54
2023/06/15 10:56:00;;;;;;;;;;;37.00;22.40;;;30.98;22.15;95485.31;4878340;29;19911;-55
2023/06/15 10:58:29;;;;;;;;;;;37.50;22.50;;;31.46;22.90;95487.44;4878089;29;19971;-54
2023/06/15 11:01:13;;;;;;;;;;;37.90;22.40;;;31.24;22.70;95480.47;4879064;29;19911;-54
2023/06/15 11:03:43;;;;;;;;;;;38.30;22.20;;;31.19;22.85;95489.16;4878046;29;19915;-55
2023/06/15 11:06:30;;;;;;;;;;;38.20;22.10;;;29.88;23.89;95491.75;4878499;29;19966;-55
2023/06/15 11:09:09;;;;;;;;;;;37.80;22.00;;;28.73;25.10;95490.59;4878239;29;19977;-55
2023/06/15 11:11:43;;;;;;;;;;;37.10;22.10;;;28.16;26.30;95491.00;4877851;29;20396;-53
2023/06/15 11:14:23;;;;;;;;;;;36.40;22.10;;;28.45;25.26;95489.25;4893120;29;19934;-55
2023/06/15 11:17:06;;;;;;;;;;;35.70;22.70;;;28.04;27.05;95489.34;4878257;29;19922;-55
2023/06/15 11:19:40;;;;;;;;;;;35.20;22.40;;;27.24;27.63;95494.44;4878705;29;20361;-53
2023/06/15 11:22:07;;;;;;;;;;;34.90;22.50;;;27.40;26.58;95494.22;4877569;29;19970;-53
2023/06/15 11:24:39;;;;;;;;;;;34.80;22.60;;;28.24;25.76;95489.91;4878992;29;20270;-54
2023/06/15 11:27:12;;;;;;;;;;;35.10;22.40;;;28.97;25.26;95483.66;4878084;29;20479;-54
2023/06/15 11:29:40;;;;;;;;;;;35.60;22.40;;;29.07;23.27;95485.69;4878780;29;19911;-54
2023/06/15 11:32:09;;;;;;;;;;;36.10;22.70;;;29.32;24.04;95479.47;4878792;29;19912;-55
2023/06/15 11:34:37;;;;;;;;;;;36.70;22.10;;;29.81;22.84;95486.25;4876937;29;20006;-55